This is the latest recevied weather packets stored in our database for station/object SP5IZJ-2. If no packets are shown the sender has not sent any weather packets the latest 10 day(s).
| Time | Temp. | Humidity | Pressure | Rain* | Wind** | Luminosity | Snow |
|---|---|---|---|---|---|---|---|
| 1777687497 | 100° C | 100% | 0 hPa | 0 mm | - | - | - |
| 1777687077 | 2.22° C | 78% | 1017.7 hPa | 0 mm | - | - | - |
| 1777686666 | 2.22° C | 78% | 1017.6 hPa | 0 mm | - | - | - |
| 1777686238 | 2.22° C | 77% | 1017.5 hPa | 0 mm | - | - | - |
| 1777685818 | 2.22° C | 77% | 1017.5 hPa | 0 mm | - | - | - |
| 1777684978 | 2.78° C | 76% | 1017.5 hPa | 0 mm | - | - | - |
| 1777684558 | 2.78° C | 76% | 1017.7 hPa | 0 mm | - | - | - |
| 1777682464 | 2.78° C | 75% | 1017.8 hPa | 0 mm | - | - | - |
| 1777681628 | 3.33° C | 75% | 1017.9 hPa | 0 mm | - | - | - |
| 1777681204 | 3.33° C | 75% | 1017.8 hPa | 0 mm | - | - | - |
| 1777680789 | 3.33° C | 74% | 1017.9 hPa | 0 mm | - | - | - |
| 1777679523 | 4.44° C | 74% | 1018 hPa | 0 mm | - | - | - |
| 1777679101 | 4.44° C | 74% | 1017.9 hPa | 0 mm | - | - | - |
| 1777678681 | 4.44° C | 73% | 1017.8 hPa | 0 mm | - | - | - |
| 1777678261 | 4.44° C | 73% | 1017.8 hPa | 0 mm | - | - | - |
| 1777677841 | 4.44° C | 73% | 1017.9 hPa | 0 mm | - | - | - |
| 1777677421 | 4.44° C | 73% | 1017.8 hPa | 0 mm | - | - | - |
| 1777677002 | 4.44° C | 72% | 1018 hPa | 0 mm | - | - | - |
| 1777676582 | 4.44° C | 71% | 1017.8 hPa | 0 mm | - | - | - |
| 1777675753 | 5.56° C | 72% | 1017.7 hPa | 0 mm | - | - | - |
| 1777675322 | 5.56° C | 73% | 1017.6 hPa | 0 mm | - | - | - |
| 1777674483 | 5° C | 68% | 1017.7 hPa | 0 mm | - | - | - |
| 1777674064 | 5° C | 67% | 1017.9 hPa | 0 mm | - | - | - |
| 1777672803 | 5.56° C | 66% | 1017.7 hPa | 0 mm | - | - | - |
| 1777670704 | 6.67° C | 64% | 1017.7 hPa | 0 mm | - | - | - |
* Rain latest hour (hover to see other rain measurements)
** Current wind speed in m/s (hover to see current wind gust speed)